createdAt,value
2023-02-03T00:01:51.980Z,72.20
2023-02-03T00:04:18.954Z,71.90
2023-02-03T00:06:46.310Z,71.80
2023-02-03T00:09:13.275Z,72.10
2023-02-03T00:11:40.109Z,72.20
2023-02-03T00:14:07.928Z,71.90
2023-02-03T00:16:35.168Z,71.70
2023-02-03T00:19:01.907Z,72.00
2023-02-03T00:21:28.811Z,71.70
2023-02-03T00:23:55.702Z,71.90
2023-02-03T00:26:23.976Z,71.80
2023-02-03T00:28:50.725Z,71.80
2023-02-03T00:31:22.909Z,71.80
2023-02-03T00:33:55.379Z,73.70
2023-02-03T00:36:23.353Z,73.50
2023-02-03T00:38:50.542Z,71.90
2023-02-03T00:41:18.332Z,72.30
2023-02-03T00:43:45.213Z,72.30
2023-02-03T00:46:12.228Z,71.50
2023-02-03T00:48:39.000Z,71.80
2023-02-03T00:51:06.514Z,71.40
2023-02-03T00:53:33.362Z,71.70
2023-02-03T00:56:01.097Z,71.40
2023-02-03T00:58:27.841Z,71.40
2023-02-03T01:00:56.828Z,71.30
2023-02-03T01:03:25.088Z,72.20
2023-02-03T01:05:51.959Z,71.20
2023-02-03T01:08:19.643Z,71.20
2023-02-03T01:10:46.455Z,71.20
2023-02-03T01:13:13.188Z,71.00
2023-02-03T01:15:47.076Z,71.10
2023-02-03T01:18:14.160Z,73.10
2023-02-03T01:20:40.894Z,71.10
2023-02-03T01:23:07.590Z,71.30
2023-02-03T01:25:36.213Z,71.10
2023-02-03T01:28:03.022Z,72.20
2023-02-03T01:30:30.073Z,70.90
2023-02-03T01:32:56.969Z,70.90
2023-02-03T01:35:25.452Z,71.00
2023-02-03T01:37:52.149Z,70.70
2023-02-03T01:40:19.080Z,70.70
2023-02-03T01:42:45.786Z,70.80
2023-02-03T01:45:13.620Z,70.60
2023-02-03T01:47:48.105Z,70.60
2023-02-03T01:50:23.029Z,71.80
2023-02-03T01:52:57.980Z,71.70
2023-02-03T01:55:31.651Z,71.80
2023-02-03T01:58:03.761Z,71.90
2023-02-03T02:00:30.802Z,72.40
2023-02-03T02:03:00.746Z,70.60
2023-02-03T02:06:03.927Z,71.90
2023-02-03T02:08:31.276Z,73.70
2023-02-03T02:11:00.266Z,71.00
2023-02-03T02:13:30.312Z,71.60
2023-02-03T02:16:09.354Z,71.90
2023-02-03T02:18:50.381Z,72.50
2023-02-03T02:21:30.397Z,72.10
2023-02-03T02:24:08.010Z,72.40
2023-02-03T02:26:40.594Z,72.30
2023-02-03T02:29:26.307Z,71.50
2023-02-03T02:32:00.237Z,72.60
2023-02-03T02:34:48.755Z,71.80
2023-02-03T02:37:37.253Z,72.10
2023-02-03T02:40:30.568Z,71.50
2023-02-03T02:43:03.296Z,69.60
2023-02-03T02:45:50.463Z,72.00
2023-02-03T02:48:21.505Z,71.80
2023-02-03T02:50:51.935Z,71.70
2023-02-03T02:53:22.365Z,71.30
2023-02-03T02:55:52.050Z,71.40
2023-02-03T02:58:20.302Z,71.00
2023-02-03T03:00:48.291Z,70.60
2023-02-03T03:03:16.808Z,70.70
2023-02-03T03:05:48.744Z,71.00
2023-02-03T03:08:23.419Z,71.30
2023-02-03T03:10:52.465Z,70.90
2023-02-03T03:13:25.687Z,70.30
2023-02-03T03:15:54.988Z,71.10
2023-02-03T03:18:39.023Z,70.40
2023-02-03T03:21:06.682Z,71.80
2023-02-03T03:23:39.479Z,69.90
2023-02-03T03:26:17.857Z,70.50
2023-02-03T03:28:58.289Z,71.10
2023-02-03T03:31:25.591Z,70.30
2023-02-03T03:33:52.505Z,68.80
2023-02-03T03:36:38.663Z,68.70
2023-02-03T03:39:37.036Z,70.50
2023-02-03T03:42:25.107Z,72.00
2023-02-03T03:44:59.301Z,70.60
2023-02-03T03:47:31.435Z,69.90
2023-02-03T03:50:00.641Z,68.40
2023-02-03T03:52:32.751Z,70.00
2023-02-03T03:55:01.859Z,70.60
2023-02-03T03:57:39.780Z,69.90
2023-02-03T04:00:10.042Z,70.80
2023-02-03T04:02:41.084Z,70.00
2023-02-03T04:05:10.452Z,69.50
2023-02-03T04:07:43.616Z,69.90
2023-02-03T04:10:38.395Z,70.70
2023-02-03T04:13:05.811Z,71.10
2023-02-03T04:15:32.663Z,69.10
2023-02-03T04:18:01.396Z,68.80
2023-02-03T04:20:29.841Z,69.40
2023-02-03T04:22:56.836Z,69.70
2023-02-03T04:25:24.065Z,68.70
2023-02-03T04:27:50.816Z,69.10
2023-02-03T04:30:18.455Z,68.30
2023-02-03T04:32:46.444Z,68.60
2023-02-03T04:35:13.840Z,69.00
2023-02-03T04:37:40.956Z,68.80
2023-02-03T04:40:08.871Z,68.60
2023-02-03T04:42:38.623Z,68.60
2023-02-03T04:45:07.511Z,69.20
2023-02-03T04:47:34.353Z,68.60
2023-02-03T04:50:01.096Z,67.80
2023-02-03T04:52:28.096Z,67.70
2023-02-03T04:54:54.819Z,67.70
2023-02-03T04:57:21.519Z,68.00
2023-02-03T04:59:48.262Z,67.50
2023-02-03T05:02:15.046Z,67.40
2023-02-03T05:04:41.704Z,67.30
2023-02-03T05:07:09.182Z,67.60
2023-02-03T05:09:35.917Z,67.80
2023-02-03T05:12:02.656Z,67.50
2023-02-03T05:14:34.828Z,67.70
2023-02-03T05:17:06.359Z,68.20
2023-02-03T05:19:33.085Z,67.90
2023-02-03T05:21:59.827Z,67.50
2023-02-03T05:24:26.535Z,67.80
2023-02-03T05:26:53.277Z,67.80
2023-02-03T05:29:19.983Z,67.70
2023-02-03T05:31:46.730Z,67.80
2023-02-03T05:34:13.549Z,67.80
2023-02-03T05:36:40.278Z,67.90
2023-02-03T05:39:07.073Z,67.70
2023-02-03T05:42:05.850Z,67.90
2023-02-03T05:44:32.555Z,67.40
2023-02-03T05:46:59.675Z,68.00
2023-02-03T05:49:26.423Z,68.40
2023-02-03T05:51:54.602Z,68.00
2023-02-03T05:54:21.939Z,68.90
2023-02-03T05:56:48.706Z,68.40
2023-02-03T05:59:15.426Z,68.10
2023-02-03T06:01:42.166Z,68.20
2023-02-03T06:04:09.284Z,68.20
2023-02-03T06:06:36.733Z,68.10
2023-02-03T06:09:05.826Z,68.10
2023-02-03T06:11:33.578Z,69.20
2023-02-03T06:14:00.792Z,68.70
2023-02-03T06:16:29.013Z,68.50
2023-02-03T06:19:00.769Z,69.10
2023-02-03T06:21:27.693Z,68.60
2023-02-03T06:23:55.849Z,68.30
2023-02-03T06:26:22.829Z,68.40
2023-02-03T06:28:49.538Z,68.30
2023-02-03T06:31:16.315Z,68.30
2023-02-03T06:33:43.112Z,68.30
2023-02-03T06:36:10.054Z,68.40
2023-02-03T06:38:36.782Z,68.60
2023-02-03T06:41:03.564Z,68.30
2023-02-03T06:43:30.302Z,68.60
2023-02-03T06:45:57.063Z,68.50
2023-02-03T06:48:23.920Z,68.60
2023-02-03T06:50:50.646Z,68.80
2023-02-03T06:53:17.504Z,68.80
2023-02-03T06:55:44.196Z,68.80
2023-02-03T06:58:10.898Z,68.60
2023-02-03T07:00:37.619Z,68.60
2023-02-03T07:03:04.516Z,68.60
2023-02-03T07:05:31.262Z,68.90
2023-02-03T07:07:59.025Z,68.80
2023-02-03T07:10:25.948Z,68.90
2023-02-03T07:12:52.799Z,68.90
2023-02-03T07:15:19.587Z,68.80
2023-02-03T07:17:54.342Z,68.90
2023-02-03T07:20:22.823Z,70.00
2023-02-03T07:22:57.032Z,69.50
2023-02-03T07:25:24.876Z,70.90
2023-02-03T07:27:51.640Z,69.70
2023-02-03T07:30:18.681Z,68.80
2023-02-03T07:32:50.037Z,69.20
2023-02-03T07:35:17.444Z,70.90
2023-02-03T07:37:44.278Z,69.40
2023-02-03T07:40:12.453Z,69.00
2023-02-03T07:42:46.238Z,70.00
2023-02-03T07:45:14.870Z,70.80
2023-02-03T07:47:43.283Z,70.20
2023-02-03T07:50:11.928Z,70.10
2023-02-03T07:52:39.203Z,70.40
2023-02-03T07:55:06.218Z,69.70
2023-02-03T07:57:32.952Z,69.60
2023-02-03T07:59:59.713Z,69.30
2023-02-03T08:02:26.544Z,69.20
2023-02-03T08:04:53.450Z,69.20
2023-02-03T08:07:20.191Z,69.10
2023-02-03T08:09:46.895Z,69.00
2023-02-03T08:12:13.590Z,69.10
2023-02-03T08:14:40.252Z,69.20
2023-02-03T08:17:06.973Z,69.10
2023-02-03T08:19:34.052Z,69.20
2023-02-03T08:22:01.042Z,69.10
2023-02-03T08:24:27.742Z,69.40
2023-02-03T08:26:54.425Z,69.20
2023-02-03T08:29:21.214Z,69.50
2023-02-03T08:31:48.071Z,69.00
2023-02-03T08:34:14.838Z,69.00
2023-02-03T08:36:42.968Z,69.00
2023-02-03T08:39:10.206Z,69.10
2023-02-03T08:41:36.948Z,69.00
2023-02-03T08:44:03.704Z,69.00
2023-02-03T08:46:30.413Z,69.30
2023-02-03T08:48:57.499Z,69.40
2023-02-03T08:51:24.623Z,69.30
2023-02-03T08:53:51.751Z,69.30
2023-02-03T08:56:18.541Z,69.20
2023-02-03T08:58:45.333Z,69.20
2023-02-03T09:01:16.258Z,69.20
2023-02-03T09:03:43.117Z,71.20
2023-02-03T09:06:12.969Z,69.30
2023-02-03T09:08:39.851Z,70.20
2023-02-03T09:11:14.621Z,69.20
2023-02-03T09:13:45.738Z,71.20
2023-02-03T09:16:17.144Z,69.00
2023-02-03T09:18:44.775Z,69.80
2023-02-03T09:21:20.844Z,70.10
2023-02-03T09:23:54.343Z,70.20
2023-02-03T09:26:21.251Z,69.30
2023-02-03T09:28:48.003Z,69.10
2023-02-03T09:31:19.782Z,70.10
2023-02-03T09:33:47.114Z,70.00
2023-02-03T09:36:14.533Z,69.60
2023-02-03T09:38:41.414Z,69.30
2023-02-03T09:41:12.121Z,68.80
2023-02-03T09:43:47.242Z,70.50
2023-02-03T09:46:24.044Z,70.30
2023-02-03T09:48:56.143Z,70.80
2023-02-03T09:51:29.097Z,70.30
2023-02-03T09:54:05.340Z,70.40
2023-02-03T09:56:36.632Z,70.70
2023-02-03T09:59:03.954Z,69.20
2023-02-03T10:01:55.055Z,69.30
2023-02-03T10:04:31.743Z,70.40
2023-02-03T10:07:28.293Z,70.40
2023-02-03T10:10:03.087Z,70.20
2023-02-03T10:13:08.928Z,68.30
2023-02-03T10:15:47.767Z,70.20
2023-02-03T10:18:21.015Z,70.90
2023-02-03T10:21:02.378Z,70.20
2023-02-03T10:23:33.665Z,70.00
2023-02-03T10:26:05.637Z,70.00
2023-02-03T10:28:40.491Z,69.70
2023-02-03T10:31:21.701Z,70.30
2023-02-03T10:33:53.115Z,69.60
2023-02-03T10:36:22.263Z,68.70
2023-02-03T10:39:03.228Z,69.70
2023-02-03T10:41:31.877Z,69.40
2023-02-03T10:44:00.478Z,68.60
2023-02-03T10:46:32.578Z,68.00
2023-02-03T10:48:59.883Z,69.50
2023-02-03T10:51:31.902Z,68.10
2023-02-03T10:54:00.245Z,69.10
2023-02-03T10:56:37.918Z,68.20
2023-02-03T10:59:06.495Z,69.50
2023-02-03T11:01:46.862Z,68.40
2023-02-03T11:04:31.954Z,70.10
2023-02-03T11:07:08.110Z,70.30
2023-02-03T11:09:42.827Z,68.90
2023-02-03T11:12:18.604Z,70.10
2023-02-03T11:14:50.578Z,69.40
2023-02-03T11:17:23.024Z,69.90
2023-02-03T11:19:53.261Z,67.90
2023-02-03T11:22:27.925Z,69.90
2023-02-03T11:24:55.314Z,70.50
2023-02-03T11:27:24.095Z,69.00
2023-02-03T11:30:06.668Z,69.00
2023-02-03T11:32:41.499Z,70.10
2023-02-03T11:35:18.349Z,70.60
2023-02-03T11:37:48.239Z,70.50
2023-02-03T11:40:15.104Z,69.70
2023-02-03T11:43:01.826Z,68.40
2023-02-03T11:45:41.264Z,71.30
2023-02-03T11:48:11.043Z,67.70
2023-02-03T11:50:55.226Z,69.90
2023-02-03T11:53:47.833Z,70.10
2023-02-03T11:57:05.038Z,70.10
2023-02-03T11:59:45.515Z,70.40
2023-02-03T12:02:47.554Z,70.00
2023-02-03T12:05:14.320Z,70.60
2023-02-03T12:07:56.056Z,69.20
2023-02-03T12:10:37.250Z,70.30
2023-02-03T12:13:32.396Z,71.10
2023-02-03T12:16:27.842Z,70.90
2023-02-03T12:19:15.168Z,71.80
2023-02-03T12:21:57.139Z,70.20
2023-02-03T12:24:27.477Z,71.60
2023-02-03T12:27:00.098Z,69.80
2023-02-03T12:30:06.209Z,72.00
2023-02-03T12:32:42.115Z,72.60
2023-02-03T12:35:38.650Z,73.00
2023-02-03T12:38:11.526Z,73.50
2023-02-03T12:40:49.164Z,74.00
2023-02-03T12:43:37.838Z,73.90
2023-02-03T12:46:28.076Z,74.30
2023-02-03T12:49:05.489Z,73.60
2023-02-03T12:51:50.658Z,74.80
2023-02-03T12:54:20.501Z,74.20
2023-02-03T12:56:50.931Z,74.40
2023-02-03T12:59:23.463Z,73.30
2023-02-03T13:01:56.567Z,74.60
2023-02-03T13:04:31.386Z,74.00
2023-02-03T13:07:36.105Z,74.20
2023-02-03T13:10:24.394Z,74.10
2023-02-03T13:12:56.475Z,73.10
2023-02-03T13:15:29.368Z,73.50
2023-02-03T13:18:01.662Z,73.80
2023-02-03T13:20:31.637Z,73.40
2023-02-03T13:22:58.712Z,72.90
2023-02-03T13:25:33.028Z,71.30
2023-02-03T13:28:09.628Z,72.50
2023-02-03T13:30:45.272Z,72.20
2023-02-03T13:33:27.109Z,71.10
2023-02-03T13:36:11.417Z,69.90
2023-02-03T13:38:58.372Z,71.10
2023-02-03T13:41:33.245Z,71.30
2023-02-03T13:44:00.383Z,70.70
2023-02-03T13:46:32.021Z,69.00
2023-02-03T13:49:01.487Z,69.90
2023-02-03T13:51:43.404Z,69.50
2023-02-03T13:54:33.070Z,69.00
2023-02-03T13:57:06.542Z,69.60
2023-02-03T13:59:44.947Z,67.90
2023-02-03T14:02:24.382Z,69.30
2023-02-03T14:04:56.828Z,69.40
2023-02-03T14:07:36.568Z,68.30
2023-02-03T14:10:12.306Z,68.50
2023-02-03T14:12:51.182Z,68.70
2023-02-03T14:15:31.134Z,69.00
2023-02-03T14:18:04.842Z,68.30
2023-02-03T14:20:40.083Z,67.50
2023-02-03T14:23:06.735Z,68.30
2023-02-03T14:25:42.569Z,66.50
2023-02-03T14:28:13.552Z,67.70
2023-02-03T14:31:05.872Z,67.80
2023-02-03T14:34:13.222Z,68.10
2023-02-03T14:36:42.370Z,68.00
2023-02-03T14:39:18.222Z,66.20
2023-02-03T14:42:13.902Z,68.20
2023-02-03T14:44:58.687Z,67.60
2023-02-03T14:47:34.453Z,68.70
2023-02-03T14:50:21.728Z,67.90
2023-02-03T14:53:15.520Z,68.00
2023-02-03T14:56:07.780Z,67.40
2023-02-03T14:58:42.948Z,67.00
2023-02-03T15:01:35.470Z,67.20
2023-02-03T15:04:14.157Z,67.40
2023-02-03T15:06:46.796Z,67.90
2023-02-03T15:09:45.827Z,66.70
2023-02-03T15:12:23.220Z,67.20
2023-02-03T15:14:50.213Z,67.30
2023-02-03T15:17:24.469Z,65.30
2023-02-03T15:19:51.925Z,67.20
2023-02-03T15:22:21.455Z,65.80
2023-02-03T15:24:50.894Z,64.60
2023-02-03T15:27:23.282Z,65.40
2023-02-03T15:29:50.048Z,66.80
2023-02-03T15:32:40.818Z,64.90
2023-02-03T15:35:13.288Z,67.00
2023-02-03T15:37:48.918Z,66.30
2023-02-03T15:40:20.238Z,66.40
2023-02-03T15:42:56.429Z,66.10
2023-02-03T15:45:41.842Z,66.60
2023-02-03T15:48:31.653Z,66.00
2023-02-03T15:51:04.380Z,66.50
2023-02-03T15:53:46.843Z,66.20
2023-02-03T15:56:42.765Z,66.00
2023-02-03T15:59:25.545Z,66.20
2023-02-03T16:01:53.550Z,66.60
2023-02-03T16:04:22.088Z,66.10
2023-02-03T16:06:51.369Z,66.10
2023-02-03T16:09:33.207Z,66.70
2023-02-03T16:12:23.561Z,67.30
2023-02-03T16:14:51.084Z,67.60
2023-02-03T16:17:23.554Z,66.70
2023-02-03T16:19:51.634Z,67.60
2023-02-03T16:22:32.107Z,66.50
2023-02-03T16:25:14.476Z,68.60
2023-02-03T16:27:44.762Z,68.80
2023-02-03T16:30:30.277Z,68.50
2023-02-03T16:33:27.452Z,66.60
2023-02-03T16:36:17.670Z,68.70
2023-02-03T16:39:07.281Z,67.20
2023-02-03T16:41:52.597Z,68.50
2023-02-03T16:44:38.175Z,66.80
2023-02-03T16:47:44.601Z,67.20
2023-02-03T16:50:39.923Z,68.80
2023-02-03T16:53:15.560Z,69.30
2023-02-03T16:55:43.464Z,68.60
2023-02-03T16:58:12.403Z,68.20
2023-02-03T17:00:41.864Z,67.30
2023-02-03T17:03:14.957Z,68.10
2023-02-03T17:05:44.217Z,68.50
2023-02-03T17:08:11.933Z,68.30
2023-02-03T17:10:40.280Z,67.40
2023-02-03T17:13:07.961Z,68.30
2023-02-03T17:15:39.528Z,67.00
2023-02-03T17:18:06.285Z,67.40
2023-02-03T17:20:33.077Z,67.00
2023-02-03T17:22:59.839Z,66.50
2023-02-03T17:25:26.813Z,66.60
2023-02-03T17:27:54.033Z,66.60
2023-02-03T17:30:21.596Z,66.70
2023-02-03T17:32:48.318Z,67.60
2023-02-03T17:35:15.236Z,66.50
2023-02-03T17:37:41.997Z,66.60
2023-02-03T17:54:06.227Z,67.70
2023-02-03T17:56:35.510Z,66.80
2023-02-03T17:59:04.470Z,67.80
2023-02-03T18:01:32.042Z,68.10
2023-02-03T18:04:02.608Z,67.50
2023-02-03T18:06:30.700Z,68.00
2023-02-03T18:09:02.377Z,67.30
2023-02-03T18:11:30.911Z,66.30
2023-02-03T18:13:57.828Z,67.30
2023-02-03T18:16:28.921Z,66.30
2023-02-03T18:18:56.624Z,67.70
2023-02-03T18:21:25.027Z,67.00
2023-02-03T18:23:56.867Z,67.30
2023-02-03T18:26:24.067Z,67.10
2023-02-03T18:28:53.166Z,66.30
2023-02-03T18:31:20.709Z,67.10
2023-02-03T18:33:48.228Z,66.60
2023-02-03T18:36:16.738Z,66.50
2023-02-03T18:38:45.237Z,66.90
2023-02-03T18:41:15.472Z,66.30
2023-02-03T18:43:42.706Z,66.90
2023-02-03T18:46:11.922Z,65.40
2023-02-03T18:48:38.696Z,66.00
2023-02-03T18:51:10.075Z,64.90
2023-02-03T18:53:38.199Z,66.30
2023-02-03T18:56:09.595Z,64.60
2023-02-03T18:58:39.529Z,65.70
2023-02-03T19:01:06.886Z,65.80
2023-02-03T19:03:34.721Z,65.50
2023-02-03T19:06:01.617Z,64.50
2023-02-03T19:08:28.294Z,64.60
2023-02-03T19:10:55.272Z,64.20
2023-02-03T19:13:22.050Z,64.10
2023-02-03T19:15:49.309Z,64.20
2023-02-03T19:18:16.550Z,64.50
2023-02-03T19:20:44.360Z,64.40
2023-02-03T19:23:13.992Z,65.10
2023-02-03T19:25:40.826Z,66.30
2023-02-03T19:28:14.219Z,64.90
2023-02-03T19:30:44.721Z,65.20
2023-02-03T19:33:11.685Z,65.10
2023-02-03T19:35:38.608Z,65.40
2023-02-03T19:38:05.600Z,65.50
2023-02-03T19:40:32.596Z,65.80
2023-02-03T19:42:59.552Z,65.70
2023-02-03T19:45:26.843Z,65.20
2023-02-03T19:47:53.677Z,65.60
2023-02-03T19:50:20.361Z,65.60
2023-02-03T19:52:48.617Z,65.40
2023-02-03T19:55:16.239Z,65.60
2023-02-03T19:57:43.015Z,65.70
2023-02-03T20:00:10.190Z,66.00
2023-02-03T20:02:45.376Z,66.10
2023-02-03T20:05:12.279Z,66.40
2023-02-03T20:07:39.157Z,65.40
2023-02-03T20:10:07.227Z,65.60
2023-02-03T20:12:33.964Z,65.80
2023-02-03T20:15:01.379Z,65.60
2023-02-03T20:17:28.933Z,65.40
2023-02-03T20:19:55.875Z,66.10
2023-02-03T20:22:22.612Z,65.70
2023-02-03T20:24:49.452Z,65.70
2023-02-03T20:27:17.769Z,65.60
2023-02-03T20:29:44.882Z,65.70
2023-02-03T20:32:11.751Z,66.30
2023-02-03T20:34:38.666Z,65.70
2023-02-03T20:37:06.827Z,66.20
2023-02-03T20:39:34.065Z,66.40
2023-02-03T20:42:00.776Z,65.90
2023-02-03T20:44:27.520Z,65.50
2023-02-03T20:46:55.747Z,65.40
2023-02-03T20:49:22.549Z,65.00
2023-02-03T20:51:49.636Z,64.80
2023-02-03T20:54:21.597Z,64.40
2023-02-03T20:56:49.064Z,66.20
2023-02-03T20:59:18.127Z,64.60
2023-02-03T21:01:45.945Z,65.10
2023-02-03T21:04:32.729Z,64.60
2023-02-03T21:07:00.003Z,64.60
2023-02-03T21:09:27.432Z,64.40
2023-02-03T21:11:55.382Z,63.80
2023-02-03T21:14:32.423Z,64.50
2023-02-03T21:16:59.156Z,65.30
2023-02-03T21:19:32.465Z,63.00
2023-02-03T21:22:03.552Z,65.30
2023-02-03T21:24:36.727Z,63.80
2023-02-03T21:27:26.717Z,64.70
2023-02-03T21:29:56.604Z,64.40
2023-02-03T21:32:38.344Z,62.80
2023-02-03T21:35:37.808Z,63.20
2023-02-03T21:38:33.154Z,64.50
2023-02-03T21:41:01.221Z,64.60
2023-02-03T21:43:33.002Z,62.80
2023-02-03T21:45:59.729Z,63.00
2023-02-03T21:48:39.742Z,62.30
2023-02-03T21:51:18.996Z,64.20
2023-02-03T21:53:52.574Z,63.70
2023-02-03T21:56:40.498Z,63.30
2023-02-03T21:59:22.974Z,63.50
2023-02-03T22:01:50.142Z,64.50
2023-02-03T22:04:16.875Z,62.30
2023-02-03T22:06:53.852Z,61.80
2023-02-03T22:09:22.848Z,62.40
2023-02-03T22:11:50.209Z,62.90
2023-02-03T22:14:17.945Z,62.00
2023-02-03T22:16:44.797Z,62.30
2023-02-03T22:19:11.721Z,62.00
2023-02-03T22:21:38.487Z,61.90
2023-02-03T22:24:05.663Z,62.10
2023-02-03T22:26:32.626Z,62.10
2023-02-03T22:28:59.483Z,62.00
2023-02-03T22:31:26.424Z,62.10
2023-02-03T22:33:53.214Z,62.60
2023-02-03T22:36:22.109Z,61.80
2023-02-03T22:38:48.812Z,61.90
2023-02-03T22:41:15.596Z,62.00
2023-02-03T22:43:42.422Z,61.90
2023-02-03T22:46:09.245Z,61.90
2023-02-03T22:48:36.097Z,62.10
2023-02-03T22:51:03.155Z,63.00
2023-02-03T22:53:30.217Z,62.40
2023-02-03T22:55:57.018Z,62.90
2023-02-03T22:58:23.845Z,62.60
2023-02-03T23:00:50.591Z,62.60
2023-02-03T23:03:17.418Z,62.60
2023-02-03T23:05:44.117Z,62.50
2023-02-03T23:08:11.070Z,62.40
2023-02-03T23:10:37.844Z,62.90
2023-02-03T23:13:04.596Z,63.00
2023-02-03T23:15:31.453Z,64.10
2023-02-03T23:17:58.484Z,63.20
2023-02-03T23:20:25.286Z,63.00
2023-02-03T23:22:52.121Z,63.00
2023-02-03T23:25:19.131Z,63.10
2023-02-03T23:27:46.021Z,63.20
2023-02-03T23:30:13.844Z,63.00
2023-02-03T23:32:40.695Z,64.10
2023-02-03T23:35:26.774Z,63.30
2023-02-03T23:37:53.615Z,63.50
2023-02-03T23:40:21.394Z,63.40
2023-02-03T23:42:48.206Z,63.60
2023-02-03T23:45:15.474Z,63.20
2023-02-03T23:47:43.848Z,63.90
2023-02-03T23:50:13.124Z,64.50
2023-02-03T23:52:39.929Z,64.60
2023-02-03T23:55:09.565Z,63.00
2023-02-03T23:57:36.513Z,64.30
